sensor_id;sensor_type;location;lat;lon;timestamp;pressure;altitude;pressure_sealevel;temperature;humidity
60970;BME280;46841;48.938;9.502;2024-01-07T00:00:18;97930.47;;;2.49;95.86
60970;BME280;46841;48.938;9.502;2024-01-07T00:02:45;97927.97;;;2.52;96.08
60970;BME280;46841;48.938;9.502;2024-01-07T00:05:12;97913.72;;;2.66;95.83
60970;BME280;46841;48.938;9.502;2024-01-07T00:07:46;97922.56;;;2.49;95.38
60970;BME280;46841;48.938;9.502;2024-01-07T00:10:21;97923.50;;;2.49;95.72
60970;BME280;46841;48.938;9.502;2024-01-07T00:15:31;97922.47;;;2.65;95.35
60970;BME280;46841;48.938;9.502;2024-01-07T00:17:57;97934.75;;;2.65;95.34
60970;BME280;46841;48.938;9.502;2024-01-07T00:20:23;97928.91;;;2.72;95.20
60970;BME280;46841;48.938;9.502;2024-01-07T00:22:50;97934.81;;;2.66;95.41
60970;BME280;46841;48.938;9.502;2024-01-07T00:25:19;97929.38;;;2.63;95.47
60970;BME280;46841;48.938;9.502;2024-01-07T00:27:46;97933.50;;;2.76;95.54
60970;BME280;46841;48.938;9.502;2024-01-07T00:30:16;97935.22;;;2.75;95.40
60970;BME280;46841;48.938;9.502;2024-01-07T00:32:43;97931.28;;;2.85;95.21
60970;BME280;46841;48.938;9.502;2024-01-07T00:35:10;97933.50;;;2.95;94.59
60970;BME280;46841;48.938;9.502;2024-01-07T00:37:37;97937.72;;;2.92;94.48
60970;BME280;46841;48.938;9.502;2024-01-07T00:40:04;97935.84;;;2.70;95.04
60970;BME280;46841;48.938;9.502;2024-01-07T00:42:33;97936.91;;;2.73;95.30
60970;BME280;46841;48.938;9.502;2024-01-07T00:44:59;97931.66;;;2.93;94.48
60970;BME280;46841;48.938;9.502;2024-01-07T00:47:27;97934.81;;;2.86;94.56
60970;BME280;46841;48.938;9.502;2024-01-07T00:49:57;97932.59;;;2.75;94.62
60970;BME280;46841;48.938;9.502;2024-01-07T00:52:23;97933.28;;;2.71;95.10
60970;BME280;46841;48.938;9.502;2024-01-07T00:54:50;97936.97;;;2.75;94.67
60970;BME280;46841;48.938;9.502;2024-01-07T00:57:16;97937.38;;;2.65;94.93
60970;BME280;46841;48.938;9.502;2024-01-07T00:59:43;97933.22;;;2.70;95.18
60970;BME280;46841;48.938;9.502;2024-01-07T01:02:11;97935.50;;;2.81;94.69
60970;BME280;46841;48.938;9.502;2024-01-07T01:04:40;97932.81;;;2.80;94.83
60970;BME280;46841;48.938;9.502;2024-01-07T01:07:07;97939.19;;;2.85;94.72
60970;BME280;46841;48.938;9.502;2024-01-07T01:09:34;97938.56;;;2.91;94.79
60970;BME280;46841;48.938;9.502;2024-01-07T01:12:01;97941.63;;;3.00;94.61
60970;BME280;46841;48.938;9.502;2024-01-07T01:14:32;97948.22;;;2.90;94.77
60970;BME280;46841;48.938;9.502;2024-01-07T01:16:59;97953.44;;;3.08;94.09
60970;BME280;46841;48.938;9.502;2024-01-07T01:19:28;97944.94;;;2.96;94.14
60970;BME280;46841;48.938;9.502;2024-01-07T01:21:53;97955.84;;;3.03;94.07
60970;BME280;46841;48.938;9.502;2024-01-07T01:24:20;97953.63;;;2.93;94.22
60970;BME280;46841;48.938;9.502;2024-01-07T01:26:49;97959.13;;;2.98;93.65
60970;BME280;46841;48.938;9.502;2024-01-07T01:29:19;97953.00;;;2.99;93.73
60970;BME280;46841;48.938;9.502;2024-01-07T01:31:47;97956.53;;;2.99;93.92
60970;BME280;46841;48.938;9.502;2024-01-07T01:34:15;97953.16;;;3.02;93.33
60970;BME280;46841;48.938;9.502;2024-01-07T01:36:41;97961.41;;;3.09;93.12
60970;BME280;46841;48.938;9.502;2024-01-07T01:39:12;97964.44;;;2.99;93.50
60970;BME280;46841;48.938;9.502;2024-01-07T01:41:41;97961.59;;;3.14;93.54
60970;BME280;46841;48.938;9.502;2024-01-07T01:44:07;97959.44;;;3.05;93.65
60970;BME280;46841;48.938;9.502;2024-01-07T01:46:35;97963.97;;;3.08;93.29
60970;BME280;46841;48.938;9.502;2024-01-07T01:49:03;97969.66;;;2.98;93.25
60970;BME280;46841;48.938;9.502;2024-01-07T01:51:30;97962.22;;;2.89;94.12
60970;BME280;46841;48.938;9.502;2024-01-07T01:54:03;97961.81;;;2.99;93.81
60970;BME280;46841;48.938;9.502;2024-01-07T01:56:30;97964.66;;;3.04;93.88
60970;BME280;46841;48.938;9.502;2024-01-07T01:58:57;97968.56;;;3.12;93.34
60970;BME280;46841;48.938;9.502;2024-01-07T02:01:23;97956.19;;;3.11;92.98
60970;BME280;46841;48.938;9.502;2024-01-07T02:03:50;97961.59;;;2.95;92.87
60970;BME280;46841;48.938;9.502;2024-01-07T02:06:20;97964.22;;;2.95;93.52
60970;BME280;46841;48.938;9.502;2024-01-07T02:08:46;97961.16;;;2.86;93.56
60970;BME280;46841;48.938;9.502;2024-01-07T02:11:17;97958.69;;;2.89;93.47
60970;BME280;46841;48.938;9.502;2024-01-07T02:13:49;97953.41;;;2.89;93.76
60970;BME280;46841;48.938;9.502;2024-01-07T02:16:17;97956.59;;;2.81;94.38
60970;BME280;46841;48.938;9.502;2024-01-07T02:18:45;97959.47;;;2.68;94.87
60970;BME280;46841;48.938;9.502;2024-01-07T02:21:13;97956.66;;;2.64;95.13
60970;BME280;46841;48.938;9.502;2024-01-07T02:23:45;97957.16;;;2.74;95.27
60970;BME280;46841;48.938;9.502;2024-01-07T02:26:11;97963.72;;;2.65;94.96
60970;BME280;46841;48.938;9.502;2024-01-07T02:28:37;97951.22;;;2.61;95.19
60970;BME280;46841;48.938;9.502;2024-01-07T02:31:04;97964.00;;;2.53;95.46
60970;BME280;46841;48.938;9.502;2024-01-07T02:33:31;97970.78;;;2.48;95.75
60970;BME280;46841;48.938;9.502;2024-01-07T02:35:57;97963.94;;;2.51;95.77
60970;BME280;46841;48.938;9.502;2024-01-07T02:38:25;97962.22;;;2.52;96.14
60970;BME280;46841;48.938;9.502;2024-01-07T02:40:54;97974.09;;;2.62;95.72
60970;BME280;46841;48.938;9.502;2024-01-07T02:43:20;97970.72;;;2.64;95.86
60970;BME280;46841;48.938;9.502;2024-01-07T02:45:47;97958.66;;;2.69;95.71
60970;BME280;46841;48.938;9.502;2024-01-07T02:48:15;97967.47;;;2.70;95.34
60970;BME280;46841;48.938;9.502;2024-01-07T02:53:15;97965.53;;;2.48;95.78
60970;BME280;46841;48.938;9.502;2024-01-07T02:55:42;97966.81;;;2.38;95.48
60970;BME280;46841;48.938;9.502;2024-01-07T03:00:48;97971.00;;;2.35;96.02
60970;BME280;46841;48.938;9.502;2024-01-07T03:03:15;97972.69;;;2.33;95.77
60970;BME280;46841;48.938;9.502;2024-01-07T03:05:44;97968.09;;;2.46;95.70
60970;BME280;46841;48.938;9.502;2024-01-07T03:08:11;97970.16;;;2.53;95.73
60970;BME280;46841;48.938;9.502;2024-01-07T03:10:38;97962.44;;;2.39;95.41
60970;BME280;46841;48.938;9.502;2024-01-07T03:13:10;97970.06;;;2.33;95.81
60970;BME280;46841;48.938;9.502;2024-01-07T03:15:38;97961.59;;;2.57;95.17
60970;BME280;46841;48.938;9.502;2024-01-07T03:18:05;97965.16;;;2.40;95.12
60970;BME280;46841;48.938;9.502;2024-01-07T03:20:31;97964.50;;;2.26;95.42
60970;BME280;46841;48.938;9.502;2024-01-07T03:23:00;97973.34;;;2.28;95.54
60970;BME280;46841;48.938;9.502;2024-01-07T03:25:26;97972.00;;;2.37;95.63
60970;BME280;46841;48.938;9.502;2024-01-07T03:27:52;97971.09;;;2.54;95.10
60970;BME280;46841;48.938;9.502;2024-01-07T03:30:21;97972.34;;;2.62;95.21
60970;BME280;46841;48.938;9.502;2024-01-07T03:35:23;97980.50;;;2.86;92.87
60970;BME280;46841;48.938;9.502;2024-01-07T03:37:50;97978.66;;;2.83;92.86
60970;BME280;46841;48.938;9.502;2024-01-07T03:40:18;97975.25;;;2.86;92.73
60970;BME280;46841;48.938;9.502;2024-01-07T03:42:44;97980.66;;;2.89;92.45
60970;BME280;46841;48.938;9.502;2024-01-07T03:45:13;97980.19;;;2.98;92.10
60970;BME280;46841;48.938;9.502;2024-01-07T03:47:44;97987.47;;;3.03;91.77
60970;BME280;46841;48.938;9.502;2024-01-07T03:50:10;97980.03;;;2.95;91.95
60970;BME280;46841;48.938;9.502;2024-01-07T03:52:37;97981.94;;;3.17;90.45
60970;BME280;46841;48.938;9.502;2024-01-07T03:55:05;97989.00;;;3.18;89.35
60970;BME280;46841;48.938;9.502;2024-01-07T03:57:33;97984.97;;;3.06;89.46
60970;BME280;46841;48.938;9.502;2024-01-07T04:00:00;97984.91;;;3.05;90.28
60970;BME280;46841;48.938;9.502;2024-01-07T04:02:27;97979.09;;;3.12;89.87
60970;BME280;46841;48.938;9.502;2024-01-07T04:04:55;97989.53;;;3.11;89.82
60970;BME280;46841;48.938;9.502;2024-01-07T04:07:23;97988.31;;;3.02;90.93
60970;BME280;46841;48.938;9.502;2024-01-07T04:09:49;97992.13;;;3.09;90.51
60970;BME280;46841;48.938;9.502;2024-01-07T04:12:15;97989.63;;;3.12;90.43
60970;BME280;46841;48.938;9.502;2024-01-07T04:20:08;97992.69;;;3.02;89.92
60970;BME280;46841;48.938;9.502;2024-01-07T04:22:34;97990.03;;;3.02;90.24
60970;BME280;46841;48.938;9.502;2024-01-07T04:25:01;97998.63;;;2.98;89.83
60970;BME280;46841;48.938;9.502;2024-01-07T04:27:27;98003.13;;;3.00;90.35
60970;BME280;46841;48.938;9.502;2024-01-07T04:29:53;98003.06;;;2.99;90.15
60970;BME280;46841;48.938;9.502;2024-01-07T04:32:18;98001.28;;;2.98;90.47
60970;BME280;46841;48.938;9.502;2024-01-07T04:34:47;98003.34;;;3.05;90.18
60970;BME280;46841;48.938;9.502;2024-01-07T04:37:21;98005.34;;;3.11;90.50
60970;BME280;46841;48.938;9.502;2024-01-07T04:39:57;98004.88;;;3.00;90.60
60970;BME280;46841;48.938;9.502;2024-01-07T04:42:24;98009.44;;;3.04;90.62
60970;BME280;46841;48.938;9.502;2024-01-07T04:44:51;98012.50;;;2.94;90.98
60970;BME280;46841;48.938;9.502;2024-01-07T04:47:32;98012.34;;;2.91;91.12
60970;BME280;46841;48.938;9.502;2024-01-07T04:50:03;98014.84;;;2.88;90.79
60970;BME280;46841;48.938;9.502;2024-01-07T04:52:30;98020.25;;;2.91;90.91
60970;BME280;46841;48.938;9.502;2024-01-07T04:54:58;98018.06;;;2.82;91.13
60970;BME280;46841;48.938;9.502;2024-01-07T04:57:24;98018.28;;;2.87;91.52
60970;BME280;46841;48.938;9.502;2024-01-07T04:59:51;98016.72;;;2.90;91.88
60970;BME280;46841;48.938;9.502;2024-01-07T05:02:19;98028.09;;;2.89;91.47
60970;BME280;46841;48.938;9.502;2024-01-07T05:04:48;98026.97;;;2.84;91.73
60970;BME280;46841;48.938;9.502;2024-01-07T05:07:15;98029.59;;;2.84;91.52
60970;BME280;46841;48.938;9.502;2024-01-07T05:09:43;98024.88;;;2.96;91.16
60970;BME280;46841;48.938;9.502;2024-01-07T05:12:09;98033.00;;;3.01;91.42
60970;BME280;46841;48.938;9.502;2024-01-07T05:14:34;98031.91;;;2.96;91.13
60970;BME280;46841;48.938;9.502;2024-01-07T05:17:06;98030.38;;;3.01;91.52
60970;BME280;46841;48.938;9.502;2024-01-07T05:19:31;98040.41;;;3.08;91.33
60970;BME280;46841;48.938;9.502;2024-01-07T05:21:58;98042.34;;;3.12;90.70
60970;BME280;46841;48.938;9.502;2024-01-07T05:24:25;98046.09;;;3.17;91.20
60970;BME280;46841;48.938;9.502;2024-01-07T05:26:50;98037.06;;;3.12;91.58
60970;BME280;46841;48.938;9.502;2024-01-07T05:29:17;98043.59;;;3.20;90.51
60970;BME280;46841;48.938;9.502;2024-01-07T05:31:43;98054.81;;;3.16;90.52
60970;BME280;46841;48.938;9.502;2024-01-07T05:34:09;98044.97;;;3.12;90.84
60970;BME280;46841;48.938;9.502;2024-01-07T05:36:35;98046.72;;;3.12;90.64
60970;BME280;46841;48.938;9.502;2024-01-07T05:39:02;98045.09;;;3.15;89.18
60970;BME280;46841;48.938;9.502;2024-01-07T05:41:28;98044.63;;;3.24;86.98
60970;BME280;46841;48.938;9.502;2024-01-07T05:43:56;98054.63;;;3.12;88.52
60970;BME280;46841;48.938;9.502;2024-01-07T05:46:22;98051.16;;;3.13;88.93
60970;BME280;46841;48.938;9.502;2024-01-07T05:48:50;98052.47;;;3.22;86.82
60970;BME280;46841;48.938;9.502;2024-01-07T05:51:16;98064.22;;;3.11;87.12
60970;BME280;46841;48.938;9.502;2024-01-07T05:53:43;98058.59;;;3.21;86.89
60970;BME280;46841;48.938;9.502;2024-01-07T05:56:09;98066.72;;;3.26;85.63
60970;BME280;46841;48.938;9.502;2024-01-07T05:58:35;98061.06;;;3.18;86.51
60970;BME280;46841;48.938;9.502;2024-01-07T06:01:06;98066.97;;;3.13;87.46
60970;BME280;46841;48.938;9.502;2024-01-07T06:03:33;98064.38;;;3.14;87.26
60970;BME280;46841;48.938;9.502;2024-01-07T06:05:59;98064.38;;;3.14;87.99
60970;BME280;46841;48.938;9.502;2024-01-07T06:08:26;98070.94;;;3.22;86.83
60970;BME280;46841;48.938;9.502;2024-01-07T06:10:53;98076.81;;;3.17;87.19
60970;BME280;46841;48.938;9.502;2024-01-07T06:13:24;98069.50;;;3.11;87.74
60970;BME280;46841;48.938;9.502;2024-01-07T06:15:52;98073.97;;;3.12;87.12
60970;BME280;46841;48.938;9.502;2024-01-07T06:18:17;98075.44;;;3.25;86.49
60970;BME280;46841;48.938;9.502;2024-01-07T06:20:44;98074.19;;;3.17;86.53
60970;BME280;46841;48.938;9.502;2024-01-07T06:23:12;98082.22;;;3.20;85.88
60970;BME280;46841;48.938;9.502;2024-01-07T06:25:38;98079.16;;;3.11;85.86
60970;BME280;46841;48.938;9.502;2024-01-07T06:28:04;98084.78;;;3.18;85.93
60970;BME280;46841;48.938;9.502;2024-01-07T06:30:30;98093.31;;;3.13;85.96
60970;BME280;46841;48.938;9.502;2024-01-07T06:32:57;98091.81;;;3.18;85.63
60970;BME280;46841;48.938;9.502;2024-01-07T06:35:25;98097.31;;;3.04;85.38
60970;BME280;46841;48.938;9.502;2024-01-07T06:37:52;98104.75;;;3.13;85.49
60970;BME280;46841;48.938;9.502;2024-01-07T06:40:19;98097.91;;;3.17;84.99
60970;BME280;46841;48.938;9.502;2024-01-07T06:42:45;98110.72;;;3.09;85.11
60970;BME280;46841;48.938;9.502;2024-01-07T06:45:16;98110.50;;;3.04;84.90
60970;BME280;46841;48.938;9.502;2024-01-07T06:47:42;98113.50;;;3.12;84.38
60970;BME280;46841;48.938;9.502;2024-01-07T06:50:10;98112.59;;;3.12;85.20
60970;BME280;46841;48.938;9.502;2024-01-07T06:52:36;98122.59;;;3.01;85.76
60970;BME280;46841;48.938;9.502;2024-01-07T06:55:02;98120.34;;;3.08;85.60
60970;BME280;46841;48.938;9.502;2024-01-07T06:57:28;98123.88;;;3.09;85.34
60970;BME280;46841;48.938;9.502;2024-01-07T06:59:54;98132.75;;;3.11;85.05
60970;BME280;46841;48.938;9.502;2024-01-07T07:02:20;98131.25;;;3.16;84.93
60970;BME280;46841;48.938;9.502;2024-01-07T07:04:48;98135.25;;;3.08;84.94
60970;BME280;46841;48.938;9.502;2024-01-07T07:07:16;98133.31;;;3.04;85.41
60970;BME280;46841;48.938;9.502;2024-01-07T07:09:43;98137.97;;;3.09;84.97
60970;BME280;46841;48.938;9.502;2024-01-07T07:12:09;98144.47;;;2.98;85.16
60970;BME280;46841;48.938;9.502;2024-01-07T07:14:35;98140.75;;;2.95;85.18
60970;BME280;46841;48.938;9.502;2024-01-07T07:17:00;98158.00;;;2.88;85.61
60970;BME280;46841;48.938;9.502;2024-01-07T07:19:27;98155.16;;;2.83;84.09
60970;BME280;46841;48.938;9.502;2024-01-07T07:21:54;98165.34;;;2.77;83.94
60970;BME280;46841;48.938;9.502;2024-01-07T07:24:22;98172.88;;;2.70;84.41
60970;BME280;46841;48.938;9.502;2024-01-07T07:26:50;98176.13;;;2.64;83.42
60970;BME280;46841;48.938;9.502;2024-01-07T07:29:17;98174.97;;;2.59;84.20
60970;BME280;46841;48.938;9.502;2024-01-07T07:31:46;98178.41;;;2.58;83.43
60970;BME280;46841;48.938;9.502;2024-01-07T07:34:13;98182.19;;;2.63;84.11
60970;BME280;46841;48.938;9.502;2024-01-07T07:36:39;98182.06;;;2.60;84.35
60970;BME280;46841;48.938;9.502;2024-01-07T07:39:07;98190.00;;;2.62;84.00
60970;BME280;46841;48.938;9.502;2024-01-07T07:41:34;98194.38;;;2.61;81.35
60970;BME280;46841;48.938;9.502;2024-01-07T07:44:00;98203.13;;;2.60;81.62
60970;BME280;46841;48.938;9.502;2024-01-07T07:46:27;98201.06;;;2.54;82.31
60970;BME280;46841;48.938;9.502;2024-01-07T07:48:53;98197.53;;;2.54;80.73
60970;BME280;46841;48.938;9.502;2024-01-07T07:51:19;98204.75;;;2.58;81.27
60970;BME280;46841;48.938;9.502;2024-01-07T07:53:45;98200.47;;;2.60;80.28
60970;BME280;46841;48.938;9.502;2024-01-07T07:56:11;98212.66;;;2.58;81.04
60970;BME280;46841;48.938;9.502;2024-01-07T07:58:38;98216.28;;;2.60;81.09
60970;BME280;46841;48.938;9.502;2024-01-07T08:01:05;98214.78;;;2.65;80.59
60970;BME280;46841;48.938;9.502;2024-01-07T08:03:32;98217.41;;;2.65;80.33
60970;BME280;46841;48.938;9.502;2024-01-07T08:05:58;98222.81;;;2.68;81.15
60970;BME280;46841;48.938;9.502;2024-01-07T08:08:24;98220.13;;;2.67;80.91
60970;BME280;46841;48.938;9.502;2024-01-07T08:10:51;98221.38;;;2.73;80.43
60970;BME280;46841;48.938;9.502;2024-01-07T08:13:16;98229.34;;;2.75;80.79
60970;BME280;46841;48.938;9.502;2024-01-07T08:15:42;98230.97;;;2.73;80.47
60970;BME280;46841;48.938;9.502;2024-01-07T08:18:08;98226.16;;;2.82;79.36
60970;BME280;46841;48.938;9.502;2024-01-07T08:20:33;98225.47;;;2.68;80.13
60970;BME280;46841;48.938;9.502;2024-01-07T08:23:09;98229.81;;;2.84;79.22
60970;BME280;46841;48.938;9.502;2024-01-07T08:25:35;98230.72;;;2.85;80.21
60970;BME280;46841;48.938;9.502;2024-01-07T08:28:01;98227.44;;;2.72;79.11
60970;BME280;46841;48.938;9.502;2024-01-07T08:30:27;98237.59;;;2.82;79.22
60970;BME280;46841;48.938;9.502;2024-01-07T08:32:53;98244.72;;;2.83;79.70
60970;BME280;46841;48.938;9.502;2024-01-07T08:35:18;98240.03;;;2.78;78.88
60970;BME280;46841;48.938;9.502;2024-01-07T08:37:50;98238.91;;;2.91;78.36
60970;BME280;46841;48.938;9.502;2024-01-07T08:40:26;98238.38;;;2.80;76.85
60970;BME280;46841;48.938;9.502;2024-01-07T08:43:05;98251.34;;;2.93;77.52
60970;BME280;46841;48.938;9.502;2024-01-07T08:45:36;98241.84;;;2.79;77.40
60970;BME280;46841;48.938;9.502;2024-01-07T08:48:02;98231.31;;;2.79;76.53
60970;BME280;46841;48.938;9.502;2024-01-07T08:50:27;98249.28;;;2.53;77.41
60970;BME280;46841;48.938;9.502;2024-01-07T08:52:53;98245.25;;;2.60;77.70
60970;BME280;46841;48.938;9.502;2024-01-07T08:55:18;98251.09;;;2.54;76.72
60970;BME280;46841;48.938;9.502;2024-01-07T08:57:44;98256.38;;;2.54;77.56
60970;BME280;46841;48.938;9.502;2024-01-07T09:00:15;98263.19;;;2.51;77.67
60970;BME280;46841;48.938;9.502;2024-01-07T09:02:45;98261.47;;;2.51;78.64
60970;BME280;46841;48.938;9.502;2024-01-07T09:05:11;98259.50;;;2.31;77.68
60970;BME280;46841;48.938;9.502;2024-01-07T09:07:39;98278.97;;;2.35;77.80
60970;BME280;46841;48.938;9.502;2024-01-07T09:10:05;98278.91;;;2.33;78.05
60970;BME280;46841;48.938;9.502;2024-01-07T09:12:37;98287.97;;;2.38;78.40
60970;BME280;46841;48.938;9.502;2024-01-07T09:15:09;98288.84;;;2.39;78.70
60970;BME280;46841;48.938;9.502;2024-01-07T09:17:36;98284.19;;;2.33;78.39
60970;BME280;46841;48.938;9.502;2024-01-07T09:20:07;98292.41;;;2.23;78.18
60970;BME280;46841;48.938;9.502;2024-01-07T09:22:35;98295.94;;;2.23;78.24
60970;BME280;46841;48.938;9.502;2024-01-07T09:25:05;98296.50;;;2.34;79.19
60970;BME280;46841;48.938;9.502;2024-01-07T09:27:33;98304.66;;;2.39;78.08
60970;BME280;46841;48.938;9.502;2024-01-07T09:30:03;98289.63;;;2.36;78.44
60970;BME280;46841;48.938;9.502;2024-01-07T09:32:30;98313.81;;;2.45;78.45
60970;BME280;46841;48.938;9.502;2024-01-07T09:34:57;98308.75;;;2.34;78.09
60970;BME280;46841;48.938;9.502;2024-01-07T09:37:23;98320.69;;;2.43;78.26
60970;BME280;46841;48.938;9.502;2024-01-07T09:39:51;98315.19;;;2.55;78.34
60970;BME280;46841;48.938;9.502;2024-01-07T09:42:18;98311.19;;;2.45;78.19
60970;BME280;46841;48.938;9.502;2024-01-07T09:44:44;98317.66;;;2.36;78.27
60970;BME280;46841;48.938;9.502;2024-01-07T09:47:14;98309.44;;;2.46;78.04
60970;BME280;46841;48.938;9.502;2024-01-07T09:49:42;98313.03;;;2.48;78.22
60970;BME280;46841;48.938;9.502;2024-01-07T09:52:10;98307.72;;;2.30;78.00
60970;BME280;46841;48.938;9.502;2024-01-07T09:54:38;98299.72;;;2.28;77.13
60970;BME280;46841;48.938;9.502;2024-01-07T09:57:05;98299.81;;;2.30;77.85
60970;BME280;46841;48.938;9.502;2024-01-07T09:59:39;98306.63;;;2.26;76.99
60970;BME280;46841;48.938;9.502;2024-01-07T10:02:06;98303.19;;;2.27;76.91
60970;BME280;46841;48.938;9.502;2024-01-07T10:04:32;98316.50;;;2.30;76.80
60970;BME280;46841;48.938;9.502;2024-01-07T10:06:59;98299.97;;;2.33;76.05
60970;BME280;46841;48.938;9.502;2024-01-07T10:09:30;98308.19;;;2.39;75.73
60970;BME280;46841;48.938;9.502;2024-01-07T10:11:58;98312.41;;;2.36;75.63
60970;BME280;46841;48.938;9.502;2024-01-07T10:14:23;98303.44;;;2.32;74.84
60970;BME280;46841;48.938;9.502;2024-01-07T10:16:52;98307.28;;;2.39;75.20
60970;BME280;46841;48.938;9.502;2024-01-07T10:19:22;98303.03;;;2.41;75.96
60970;BME280;46841;48.938;9.502;2024-01-07T10:24:35;98311.75;;;2.40;74.66
60970;BME280;46841;48.938;9.502;2024-01-07T10:27:03;98309.13;;;2.40;74.23
60970;BME280;46841;48.938;9.502;2024-01-07T10:29:31;98315.75;;;2.33;74.50
60970;BME280;46841;48.938;9.502;2024-01-07T10:31:59;98307.03;;;2.34;73.56
60970;BME280;46841;48.938;9.502;2024-01-07T10:34:26;98315.59;;;2.46;73.75
60970;BME280;46841;48.938;9.502;2024-01-07T10:36:54;98317.41;;;2.47;74.11
60970;BME280;46841;48.938;9.502;2024-01-07T10:39:22;98318.41;;;2.49;73.82
60970;BME280;46841;48.938;9.502;2024-01-07T10:41:51;98322.44;;;2.43;74.17
60970;BME280;46841;48.938;9.502;2024-01-07T10:44:19;98328.69;;;2.45;74.43
60970;BME280;46841;48.938;9.502;2024-01-07T10:46:46;98320.63;;;2.58;73.48
60970;BME280;46841;48.938;9.502;2024-01-07T10:49:19;98322.59;;;2.46;74.14
60970;BME280;46841;48.938;9.502;2024-01-07T10:52:06;98332.63;;;2.37;74.17
60970;BME280;46841;48.938;9.502;2024-01-07T10:54:35;98328.03;;;2.33;74.56
60970;BME280;46841;48.938;9.502;2024-01-07T10:57:11;98333.94;;;2.28;73.72
60970;BME280;46841;48.938;9.502;2024-01-07T10:59:38;98332.59;;;2.20;74.54
60970;BME280;46841;48.938;9.502;2024-01-07T11:02:04;98329.81;;;2.17;75.18
60970;BME280;46841;48.938;9.502;2024-01-07T11:07:11;98325.28;;;2.15;74.40
60970;BME280;46841;48.938;9.502;2024-01-07T11:10:06;98340.09;;;2.13;74.98
60970;BME280;46841;48.938;9.502;2024-01-07T11:12:34;98330.66;;;2.16;74.54
60970;BME280;46841;48.938;9.502;2024-01-07T11:15:01;98325.78;;;2.08;74.75
60970;BME280;46841;48.938;9.502;2024-01-07T11:20:05;98343.94;;;2.03;74.89
60970;BME280;46841;48.938;9.502;2024-01-07T11:22:31;98337.72;;;2.17;74.75
60970;BME280;46841;48.938;9.502;2024-01-07T11:25:00;98330.78;;;2.19;74.08
60970;BME280;46841;48.938;9.502;2024-01-07T11:27:31;98334.91;;;2.14;74.07
60970;BME280;46841;48.938;9.502;2024-01-07T11:30:07;98332.38;;;2.16;73.99
60970;BME280;46841;48.938;9.502;2024-01-07T11:32:34;98339.84;;;2.24;74.12
60970;BME280;46841;48.938;9.502;2024-01-07T11:35:01;98346.00;;;2.09;74.26
60970;BME280;46841;48.938;9.502;2024-01-07T11:37:28;98346.38;;;2.00;74.98
60970;BME280;46841;48.938;9.502;2024-01-07T11:39:57;98346.97;;;2.11;74.31
60970;BME280;46841;48.938;9.502;2024-01-07T11:42:25;98341.06;;;2.15;73.84
60970;BME280;46841;48.938;9.502;2024-01-07T11:44:53;98345.66;;;2.02;74.29
60970;BME280;46841;48.938;9.502;2024-01-07T11:47:24;98348.25;;;2.17;73.66
60970;BME280;46841;48.938;9.502;2024-01-07T11:49:53;98337.72;;;1.86;72.31
60970;BME280;46841;48.938;9.502;2024-01-07T11:52:19;98341.63;;;1.93;73.34
60970;BME280;46841;48.938;9.502;2024-01-07T11:54:46;98339.56;;;1.72;72.22
60970;BME280;46841;48.938;9.502;2024-01-07T11:57:13;98339.63;;;1.89;73.44
60970;BME280;46841;48.938;9.502;2024-01-07T11:59:39;98349.31;;;1.90;72.31
60970;BME280;46841;48.938;9.502;2024-01-07T12:02:07;98347.56;;;1.74;72.56
60970;BME280;46841;48.938;9.502;2024-01-07T12:04:35;98364.41;;;1.63;73.15
60970;BME280;46841;48.938;9.502;2024-01-07T12:07:01;98357.06;;;1.72;73.04
60970;BME280;46841;48.938;9.502;2024-01-07T12:09:29;98358.72;;;1.70;73.49
60970;BME280;46841;48.938;9.502;2024-01-07T12:11:54;98357.97;;;1.72;72.99
60970;BME280;46841;48.938;9.502;2024-01-07T12:14:22;98369.16;;;1.53;73.36
60970;BME280;46841;48.938;9.502;2024-01-07T12:16:48;98368.50;;;1.58;73.43
60970;BME280;46841;48.938;9.502;2024-01-07T12:19:19;98362.81;;;1.50;73.40
60970;BME280;46841;48.938;9.502;2024-01-07T12:21:45;98359.63;;;1.56;73.50
60970;BME280;46841;48.938;9.502;2024-01-07T12:24:13;98362.34;;;1.57;73.07
60970;BME280;46841;48.938;9.502;2024-01-07T12:26:40;98360.09;;;1.63;73.57
60970;BME280;46841;48.938;9.502;2024-01-07T12:29:06;98365.59;;;1.53;74.56
60970;BME280;46841;48.938;9.502;2024-01-07T12:31:33;98365.59;;;1.53;74.27
60970;BME280;46841;48.938;9.502;2024-01-07T12:34:00;98362.63;;;1.47;74.01
60970;BME280;46841;48.938;9.502;2024-01-07T12:36:29;98370.50;;;1.47;74.44
60970;BME280;46841;48.938;9.502;2024-01-07T12:39:02;98378.75;;;1.38;74.91
60970;BME280;46841;48.938;9.502;2024-01-07T12:41:31;98382.84;;;1.48;74.25
60970;BME280;46841;48.938;9.502;2024-01-07T12:43:57;98382.31;;;1.53;74.41
60970;BME280;46841;48.938;9.502;2024-01-07T12:46:23;98384.84;;;1.37;73.94
60970;BME280;46841;48.938;9.502;2024-01-07T12:48:48;98387.56;;;1.39;74.38
60970;BME280;46841;48.938;9.502;2024-01-07T12:51:16;98391.19;;;1.26;73.91
60970;BME280;46841;48.938;9.502;2024-01-07T12:53:43;98384.28;;;1.28;74.51
60970;BME280;46841;48.938;9.502;2024-01-07T12:56:09;98389.13;;;1.35;74.56
60970;BME280;46841;48.938;9.502;2024-01-07T12:58:35;98391.75;;;1.20;74.62
60970;BME280;46841;48.938;9.502;2024-01-07T13:01:00;98396.59;;;1.14;74.92
60970;BME280;46841;48.938;9.502;2024-01-07T13:03:27;98399.22;;;0.99;74.47
60970;BME280;46841;48.938;9.502;2024-01-07T13:05:52;98403.94;;;1.05;74.30
60970;BME280;46841;48.938;9.502;2024-01-07T13:08:21;98410.00;;;1.04;75.42
60970;BME280;46841;48.938;9.502;2024-01-07T13:10:56;98402.59;;;1.12;75.39
60970;BME280;46841;48.938;9.502;2024-01-07T13:13:21;98407.03;;;1.13;75.11
60970;BME280;46841;48.938;9.502;2024-01-07T13:15:47;98411.31;;;1.11;75.09
60970;BME280;46841;48.938;9.502;2024-01-07T13:18:13;98409.91;;;1.02;75.68
60970;BME280;46841;48.938;9.502;2024-01-07T13:20:39;98419.25;;;0.97;75.58
60970;BME280;46841;48.938;9.502;2024-01-07T13:23:09;98417.16;;;0.92;75.55
60970;BME280;46841;48.938;9.502;2024-01-07T13:25:36;98421.84;;;0.83;76.24
60970;BME280;46841;48.938;9.502;2024-01-07T13:28:03;98426.97;;;0.81;76.52
60970;BME280;46841;48.938;9.502;2024-01-07T13:30:30;98422.75;;;0.83;75.84
60970;BME280;46841;48.938;9.502;2024-01-07T13:32:55;98433.53;;;0.88;75.79
60970;BME280;46841;48.938;9.502;2024-01-07T13:35:22;98428.34;;;0.89;76.06